sensor_id;sensor_type;location;lat;lon;timestamp;temperature;humidity
13148;DHT22;6639;50.956;4.242;2024-02-16T00:00:02;19.40;99.90
13148;DHT22;6639;50.956;4.242;2024-02-16T00:02:29;19.10;99.90
13148;DHT22;6639;50.956;4.242;2024-02-16T00:04:58;19.20;99.90
13148;DHT22;6639;50.956;4.242;2024-02-16T00:07:24;19.30;99.90
13148;DHT22;6639;50.956;4.242;2024-02-16T00:09:51;19.20;99.90
13148;DHT22;6639;50.956;4.242;2024-02-16T00:12:20;19.20;99.90
13148;DHT22;6639;50.956;4.242;2024-02-16T00:14:48;19.50;99.90
13148;DHT22;6639;50.956;4.242;2024-02-16T00:17:15;19.70;99.90
13148;DHT22;6639;50.956;4.242;2024-02-16T00:19:44;19.60;99.90
13148;DHT22;6639;50.956;4.242;2024-02-16T00:22:11;19.70;99.90
13148;DHT22;6639;50.956;4.242;2024-02-16T00:24:38;19.80;99.90
13148;DHT22;6639;50.956;4.242;2024-02-16T00:27:05;19.80;99.90
13148;DHT22;6639;50.956;4.242;2024-02-16T00:29:33;19.50;99.90
13148;DHT22;6639;50.956;4.242;2024-02-16T00:32:00;19.70;99.90
13148;DHT22;6639;50.956;4.242;2024-02-16T00:34:27;19.90;99.90
13148;DHT22;6639;50.956;4.242;2024-02-16T00:36:54;20.00;99.90
13148;DHT22;6639;50.956;4.242;2024-02-16T00:39:21;20.20;99.90
13148;DHT22;6639;50.956;4.242;2024-02-16T00:41:48;19.90;99.90
13148;DHT22;6639;50.956;4.242;2024-02-16T00:44:15;19.50;99.90
13148;DHT22;6639;50.956;4.242;2024-02-16T00:46:44;19.80;99.90
13148;DHT22;6639;50.956;4.242;2024-02-16T00:49:11;19.50;99.90
13148;DHT22;6639;50.956;4.242;2024-02-16T00:51:38;19.50;99.90
13148;DHT22;6639;50.956;4.242;2024-02-16T00:54:05;19.70;99.90
13148;DHT22;6639;50.956;4.242;2024-02-16T00:56:32;19.60;99.90
13148;DHT22;6639;50.956;4.242;2024-02-16T00:58:59;19.80;99.90
13148;DHT22;6639;50.956;4.242;2024-02-16T01:01:27;19.50;99.90
13148;DHT22;6639;50.956;4.242;2024-02-16T01:03:55;19.20;99.90
13148;DHT22;6639;50.956;4.242;2024-02-16T01:06:22;19.20;99.90
13148;DHT22;6639;50.956;4.242;2024-02-16T01:08:49;19.30;99.90
13148;DHT22;6639;50.956;4.242;2024-02-16T01:11:16;19.50;99.90
13148;DHT22;6639;50.956;4.242;2024-02-16T01:13:43;19.70;99.90
13148;DHT22;6639;50.956;4.242;2024-02-16T01:16:10;19.60;99.90
13148;DHT22;6639;50.956;4.242;2024-02-16T01:18:36;19.70;99.90
13148;DHT22;6639;50.956;4.242;2024-02-16T01:21:05;19.70;99.90
13148;DHT22;6639;50.956;4.242;2024-02-16T01:23:32;20.00;99.90
13148;DHT22;6639;50.956;4.242;2024-02-16T01:25:59;20.40;99.90
13148;DHT22;6639;50.956;4.242;2024-02-16T01:28:26;20.30;99.90
13148;DHT22;6639;50.956;4.242;2024-02-16T01:30:53;20.30;99.90
13148;DHT22;6639;50.956;4.242;2024-02-16T01:33:23;20.40;99.90
13148;DHT22;6639;50.956;4.242;2024-02-16T01:35:50;20.30;99.90
13148;DHT22;6639;50.956;4.242;2024-02-16T01:38:18;20.10;99.90
13148;DHT22;6639;50.956;4.242;2024-02-16T01:40:46;20.00;99.90
13148;DHT22;6639;50.956;4.242;2024-02-16T01:43:14;19.80;99.90
13148;DHT22;6639;50.956;4.242;2024-02-16T01:45:45;19.50;99.90
13148;DHT22;6639;50.956;4.242;2024-02-16T01:48:13;19.30;99.90
13148;DHT22;6639;50.956;4.242;2024-02-16T01:50:42;19.30;99.90
13148;DHT22;6639;50.956;4.242;2024-02-16T01:53:09;19.00;99.90
13148;DHT22;6639;50.956;4.242;2024-02-16T01:55:38;19.20;99.90
13148;DHT22;6639;50.956;4.242;2024-02-16T01:58:05;19.20;99.90
13148;DHT22;6639;50.956;4.242;2024-02-16T02:00:33;19.40;99.90
13148;DHT22;6639;50.956;4.242;2024-02-16T02:03:00;19.40;99.90
13148;DHT22;6639;50.956;4.242;2024-02-16T02:05:27;19.20;99.90
13148;DHT22;6639;50.956;4.242;2024-02-16T02:07:53;19.10;99.90
13148;DHT22;6639;50.956;4.242;2024-02-16T02:10:20;18.90;99.90
13148;DHT22;6639;50.956;4.242;2024-02-16T02:12:49;19.00;99.90
13148;DHT22;6639;50.956;4.242;2024-02-16T02:15:16;18.30;99.90
13148;DHT22;6639;50.956;4.242;2024-02-16T02:17:43;18.40;99.90
13148;DHT22;6639;50.956;4.242;2024-02-16T02:20:10;18.50;99.90
13148;DHT22;6639;50.956;4.242;2024-02-16T02:22:38;19.00;99.90
13148;DHT22;6639;50.956;4.242;2024-02-16T02:25:05;18.90;99.90
13148;DHT22;6639;50.956;4.242;2024-02-16T02:27:36;19.10;99.90
13148;DHT22;6639;50.956;4.242;2024-02-16T02:30:04;18.70;99.90
13148;DHT22;6639;50.956;4.242;2024-02-16T02:32:32;18.90;99.90
13148;DHT22;6639;50.956;4.242;2024-02-16T02:34:58;19.10;99.90
13148;DHT22;6639;50.956;4.242;2024-02-16T02:37:25;18.80;99.90
13148;DHT22;6639;50.956;4.242;2024-02-16T02:39:54;18.60;99.90
13148;DHT22;6639;50.956;4.242;2024-02-16T02:42:22;18.50;99.90
13148;DHT22;6639;50.956;4.242;2024-02-16T02:44:49;18.70;99.90
13148;DHT22;6639;50.956;4.242;2024-02-16T02:47:16;18.70;99.90
13148;DHT22;6639;50.956;4.242;2024-02-16T02:49:43;18.60;99.90
13148;DHT22;6639;50.956;4.242;2024-02-16T02:52:10;18.50;99.90
13148;DHT22;6639;50.956;4.242;2024-02-16T02:54:37;18.50;99.90
13148;DHT22;6639;50.956;4.242;2024-02-16T02:57:06;18.70;99.90
13148;DHT22;6639;50.956;4.242;2024-02-16T02:59:32;18.30;99.90
13148;DHT22;6639;50.956;4.242;2024-02-16T03:01:59;18.40;99.90
13148;DHT22;6639;50.956;4.242;2024-02-16T03:04:26;18.40;99.90
13148;DHT22;6639;50.956;4.242;2024-02-16T03:06:53;18.20;99.90
13148;DHT22;6639;50.956;4.242;2024-02-16T03:09:20;18.00;99.90
13148;DHT22;6639;50.956;4.242;2024-02-16T03:11:48;18.20;99.90
13148;DHT22;6639;50.956;4.242;2024-02-16T03:14:16;18.10;99.90
13148;DHT22;6639;50.956;4.242;2024-02-16T03:16:43;18.10;99.90
13148;DHT22;6639;50.956;4.242;2024-02-16T03:19:10;17.90;99.90
13148;DHT22;6639;50.956;4.242;2024-02-16T03:21:37;18.00;99.90
13148;DHT22;6639;50.956;4.242;2024-02-16T03:24:04;18.00;99.90
13148;DHT22;6639;50.956;4.242;2024-02-16T03:26:31;18.00;99.90
13148;DHT22;6639;50.956;4.242;2024-02-16T03:28:58;18.10;99.90
13148;DHT22;6639;50.956;4.242;2024-02-16T03:31:26;18.40;99.90
13148;DHT22;6639;50.956;4.242;2024-02-16T03:33:54;18.40;99.90
13148;DHT22;6639;50.956;4.242;2024-02-16T03:36:21;18.20;99.90
13148;DHT22;6639;50.956;4.242;2024-02-16T03:38:49;18.70;99.90
13148;DHT22;6639;50.956;4.242;2024-02-16T03:41:19;18.80;99.90
13148;DHT22;6639;50.956;4.242;2024-02-16T03:43:46;19.10;99.90
13148;DHT22;6639;50.956;4.242;2024-02-16T03:46:13;19.60;99.90
13148;DHT22;6639;50.956;4.242;2024-02-16T03:48:41;19.40;99.90
13148;DHT22;6639;50.956;4.242;2024-02-16T03:51:08;18.70;99.90
13148;DHT22;6639;50.956;4.242;2024-02-16T03:53:35;19.10;99.90
13148;DHT22;6639;50.956;4.242;2024-02-16T03:56:02;19.20;99.90
13148;DHT22;6639;50.956;4.242;2024-02-16T03:58:31;19.00;99.90
13148;DHT22;6639;50.956;4.242;2024-02-16T04:00:58;18.30;99.90
13148;DHT22;6639;50.956;4.242;2024-02-16T04:03:25;18.60;99.90
13148;DHT22;6639;50.956;4.242;2024-02-16T04:05:53;18.70;99.90
13148;DHT22;6639;50.956;4.242;2024-02-16T04:08:20;18.80;99.90
13148;DHT22;6639;50.956;4.242;2024-02-16T04:10:47;18.30;99.90
13148;DHT22;6639;50.956;4.242;2024-02-16T04:13:14;18.50;99.90
13148;DHT22;6639;50.956;4.242;2024-02-16T04:15:41;18.50;99.90
13148;DHT22;6639;50.956;4.242;2024-02-16T04:18:08;19.10;99.90
13148;DHT22;6639;50.956;4.242;2024-02-16T04:20:35;19.20;99.90
13148;DHT22;6639;50.956;4.242;2024-02-16T04:23:04;19.40;99.90
13148;DHT22;6639;50.956;4.242;2024-02-16T04:25:31;19.10;99.90
13148;DHT22;6639;50.956;4.242;2024-02-16T04:27:58;18.80;99.90
13148;DHT22;6639;50.956;4.242;2024-02-16T04:30:25;18.90;99.90
13148;DHT22;6639;50.956;4.242;2024-02-16T04:32:52;18.30;99.90
13148;DHT22;6639;50.956;4.242;2024-02-16T04:35:19;18.10;99.90
13148;DHT22;6639;50.956;4.242;2024-02-16T04:37:46;18.30;99.90
13148;DHT22;6639;50.956;4.242;2024-02-16T04:40:14;18.30;99.90
13148;DHT22;6639;50.956;4.242;2024-02-16T04:42:41;18.10;99.90
13148;DHT22;6639;50.956;4.242;2024-02-16T04:45:11;18.20;99.90
13148;DHT22;6639;50.956;4.242;2024-02-16T04:47:39;18.40;99.90
13148;DHT22;6639;50.956;4.242;2024-02-16T04:50:06;18.90;99.90
13148;DHT22;6639;50.956;4.242;2024-02-16T04:52:36;19.10;99.90
13148;DHT22;6639;50.956;4.242;2024-02-16T04:55:04;19.00;99.90
13148;DHT22;6639;50.956;4.242;2024-02-16T04:57:33;19.00;99.90
13148;DHT22;6639;50.956;4.242;2024-02-16T05:00:03;19.20;99.90
13148;DHT22;6639;50.956;4.242;2024-02-16T05:02:30;17.90;99.90
13148;DHT22;6639;50.956;4.242;2024-02-16T05:04:57;17.30;99.90
13148;DHT22;6639;50.956;4.242;2024-02-16T05:07:24;17.80;99.90
13148;DHT22;6639;50.956;4.242;2024-02-16T05:09:51;17.60;99.90
13148;DHT22;6639;50.956;4.242;2024-02-16T05:12:21;17.50;99.90
13148;DHT22;6639;50.956;4.242;2024-02-16T05:14:50;17.40;99.90
13148;DHT22;6639;50.956;4.242;2024-02-16T05:17:18;17.50;99.90
13148;DHT22;6639;50.956;4.242;2024-02-16T05:19:45;17.40;99.90
13148;DHT22;6639;50.956;4.242;2024-02-16T05:22:12;17.40;99.90
13148;DHT22;6639;50.956;4.242;2024-02-16T05:24:39;17.40;99.90
13148;DHT22;6639;50.956;4.242;2024-02-16T05:27:06;17.20;99.90
13148;DHT22;6639;50.956;4.242;2024-02-16T05:29:33;17.20;99.90
13148;DHT22;6639;50.956;4.242;2024-02-16T05:32:01;17.40;99.90
13148;DHT22;6639;50.956;4.242;2024-02-16T05:34:28;17.80;99.90
13148;DHT22;6639;50.956;4.242;2024-02-16T05:36:58;18.00;99.90
13148;DHT22;6639;50.956;4.242;2024-02-16T05:39:27;18.10;99.90
13148;DHT22;6639;50.956;4.242;2024-02-16T05:41:56;17.70;99.90
13148;DHT22;6639;50.956;4.242;2024-02-16T05:44:23;17.60;99.90
13148;DHT22;6639;50.956;4.242;2024-02-16T05:46:50;17.80;99.90
13148;DHT22;6639;50.956;4.242;2024-02-16T05:49:18;17.70;99.90
13148;DHT22;6639;50.956;4.242;2024-02-16T05:51:46;17.90;99.90
13148;DHT22;6639;50.956;4.242;2024-02-16T05:54:40;18.20;99.90
13148;DHT22;6639;50.956;4.242;2024-02-16T05:57:07;17.50;99.90
13148;DHT22;6639;50.956;4.242;2024-02-16T05:59:35;17.30;99.90
13148;DHT22;6639;50.956;4.242;2024-02-16T06:02:03;17.60;99.90
13148;DHT22;6639;50.956;4.242;2024-02-16T06:04:32;17.60;99.90
13148;DHT22;6639;50.956;4.242;2024-02-16T06:06:59;17.30;99.90
13148;DHT22;6639;50.956;4.242;2024-02-16T06:09:26;17.30;99.90
13148;DHT22;6639;50.956;4.242;2024-02-16T06:12:03;17.40;99.90
13148;DHT22;6639;50.956;4.242;2024-02-16T06:14:31;17.20;99.90
13148;DHT22;6639;50.956;4.242;2024-02-16T06:16:58;17.30;99.90
13148;DHT22;6639;50.956;4.242;2024-02-16T06:19:25;17.80;99.90
13148;DHT22;6639;50.956;4.242;2024-02-16T06:21:54;18.20;99.90
13148;DHT22;6639;50.956;4.242;2024-02-16T06:24:21;18.00;99.90
13148;DHT22;6639;50.956;4.242;2024-02-16T06:26:48;18.00;99.90
13148;DHT22;6639;50.956;4.242;2024-02-16T06:29:15;18.10;99.90
13148;DHT22;6639;50.956;4.242;2024-02-16T06:31:42;17.90;99.90
13148;DHT22;6639;50.956;4.242;2024-02-16T06:34:09;17.90;99.90
13148;DHT22;6639;50.956;4.242;2024-02-16T06:36:36;17.90;99.90
13148;DHT22;6639;50.956;4.242;2024-02-16T06:39:04;17.90;99.90
13148;DHT22;6639;50.956;4.242;2024-02-16T06:41:31;18.30;99.90
13148;DHT22;6639;50.956;4.242;2024-02-16T06:43:58;18.60;99.90
13148;DHT22;6639;50.956;4.242;2024-02-16T06:46:25;18.60;99.90
13148;DHT22;6639;50.956;4.242;2024-02-16T06:48:53;18.70;99.90
13148;DHT22;6639;50.956;4.242;2024-02-16T06:51:22;18.80;99.90
13148;DHT22;6639;50.956;4.242;2024-02-16T06:53:49;18.80;99.90
13148;DHT22;6639;50.956;4.242;2024-02-16T06:56:18;18.60;99.90
13148;DHT22;6639;50.956;4.242;2024-02-16T06:58:45;18.60;99.90
13148;DHT22;6639;50.956;4.242;2024-02-16T07:01:12;18.70;99.90
13148;DHT22;6639;50.956;4.242;2024-02-16T07:03:40;18.80;99.90
13148;DHT22;6639;50.956;4.242;2024-02-16T07:06:07;19.10;99.90
13148;DHT22;6639;50.956;4.242;2024-02-16T07:08:36;19.10;99.90
13148;DHT22;6639;50.956;4.242;2024-02-16T07:11:03;18.70;99.90
13148;DHT22;6639;50.956;4.242;2024-02-16T07:13:32;18.80;99.90
13148;DHT22;6639;50.956;4.242;2024-02-16T07:15:59;19.10;99.90
13148;DHT22;6639;50.956;4.242;2024-02-16T07:18:26;18.70;99.90
13148;DHT22;6639;50.956;4.242;2024-02-16T07:20:53;18.50;99.90
13148;DHT22;6639;50.956;4.242;2024-02-16T07:23:20;18.00;99.90
13148;DHT22;6639;50.956;4.242;2024-02-16T07:25:47;17.90;99.90
13148;DHT22;6639;50.956;4.242;2024-02-16T07:28:15;17.60;99.90
13148;DHT22;6639;50.956;4.242;2024-02-16T07:30:43;17.80;99.90
13148;DHT22;6639;50.956;4.242;2024-02-16T07:33:11;18.20;99.90
13148;DHT22;6639;50.956;4.242;2024-02-16T07:35:38;18.00;99.90
13148;DHT22;6639;50.956;4.242;2024-02-16T07:38:05;18.00;99.90
13148;DHT22;6639;50.956;4.242;2024-02-16T07:40:32;18.10;99.90
13148;DHT22;6639;50.956;4.242;2024-02-16T07:43:00;18.10;99.90
13148;DHT22;6639;50.956;4.242;2024-02-16T07:45:27;18.30;99.90
13148;DHT22;6639;50.956;4.242;2024-02-16T07:47:56;18.10;99.90
13148;DHT22;6639;50.956;4.242;2024-02-16T07:50:25;18.20;99.90
13148;DHT22;6639;50.956;4.242;2024-02-16T07:52:52;18.00;99.90
13148;DHT22;6639;50.956;4.242;2024-02-16T07:55:19;18.10;99.90
13148;DHT22;6639;50.956;4.242;2024-02-16T07:57:46;17.90;99.90
13148;DHT22;6639;50.956;4.242;2024-02-16T08:00:13;17.90;99.90
13148;DHT22;6639;50.956;4.242;2024-02-16T08:02:41;18.30;99.90
13148;DHT22;6639;50.956;4.242;2024-02-16T08:05:11;18.40;99.90
13148;DHT22;6639;50.956;4.242;2024-02-16T08:07:39;18.10;99.90
13148;DHT22;6639;50.956;4.242;2024-02-16T08:10:07;18.20;99.90
13148;DHT22;6639;50.956;4.242;2024-02-16T08:12:35;18.30;99.90
13148;DHT22;6639;50.956;4.242;2024-02-16T08:15:04;18.20;99.90
13148;DHT22;6639;50.956;4.242;2024-02-16T08:17:32;18.10;99.90
13148;DHT22;6639;50.956;4.242;2024-02-16T08:19:59;18.30;99.90
13148;DHT22;6639;50.956;4.242;2024-02-16T08:22:27;18.40;99.90
13148;DHT22;6639;50.956;4.242;2024-02-16T08:24:54;18.50;99.90
13148;DHT22;6639;50.956;4.242;2024-02-16T08:27:21;18.20;99.90
13148;DHT22;6639;50.956;4.242;2024-02-16T08:29:48;18.20;99.90
13148;DHT22;6639;50.956;4.242;2024-02-16T08:32:16;18.10;99.90
13148;DHT22;6639;50.956;4.242;2024-02-16T08:34:43;18.40;99.90
13148;DHT22;6639;50.956;4.242;2024-02-16T08:37:10;18.60;99.90
13148;DHT22;6639;50.956;4.242;2024-02-16T08:39:39;18.60;99.90
13148;DHT22;6639;50.956;4.242;2024-02-16T08:42:06;18.50;99.90
13148;DHT22;6639;50.956;4.242;2024-02-16T08:44:34;18.50;99.90
13148;DHT22;6639;50.956;4.242;2024-02-16T08:47:01;18.20;99.90
13148;DHT22;6639;50.956;4.242;2024-02-16T08:49:28;18.40;99.90
13148;DHT22;6639;50.956;4.242;2024-02-16T08:51:56;18.40;99.90
13148;DHT22;6639;50.956;4.242;2024-02-16T08:54:23;18.60;99.90
13148;DHT22;6639;50.956;4.242;2024-02-16T08:56:53;18.60;99.90
13148;DHT22;6639;50.956;4.242;2024-02-16T08:59:20;18.70;99.90
13148;DHT22;6639;50.956;4.242;2024-02-16T09:01:47;18.50;99.90
13148;DHT22;6639;50.956;4.242;2024-02-16T09:04:14;18.50;99.90
13148;DHT22;6639;50.956;4.242;2024-02-16T09:06:42;18.40;99.90
13148;DHT22;6639;50.956;4.242;2024-02-16T09:09:09;18.80;99.90
13148;DHT22;6639;50.956;4.242;2024-02-16T09:11:36;18.50;99.90
13148;DHT22;6639;50.956;4.242;2024-02-16T09:14:05;18.20;99.90
13148;DHT22;6639;50.956;4.242;2024-02-16T09:16:31;18.30;99.90
13148;DHT22;6639;50.956;4.242;2024-02-16T09:18:59;18.50;99.90
13148;DHT22;6639;50.956;4.242;2024-02-16T09:21:25;18.50;99.90
13148;DHT22;6639;50.956;4.242;2024-02-16T09:23:55;18.40;99.90
13148;DHT22;6639;50.956;4.242;2024-02-16T09:26:24;18.30;99.90
13148;DHT22;6639;50.956;4.242;2024-02-16T09:28:55;18.50;99.90
13148;DHT22;6639;50.956;4.242;2024-02-16T09:31:24;18.60;99.90
13148;DHT22;6639;50.956;4.242;2024-02-16T09:33:51;18.70;99.90
13148;DHT22;6639;50.956;4.242;2024-02-16T09:36:19;18.80;99.90
13148;DHT22;6639;50.956;4.242;2024-02-16T09:38:46;18.70;99.90
13148;DHT22;6639;50.956;4.242;2024-02-16T09:41:13;18.70;99.90
13148;DHT22;6639;50.956;4.242;2024-02-16T09:43:41;18.60;99.90
13148;DHT22;6639;50.956;4.242;2024-02-16T09:46:08;18.50;99.90
13148;DHT22;6639;50.956;4.242;2024-02-16T09:48:39;18.60;99.90
13148;DHT22;6639;50.956;4.242;2024-02-16T09:51:06;18.20;99.90
13148;DHT22;6639;50.956;4.242;2024-02-16T09:53:34;18.30;99.90
13148;DHT22;6639;50.956;4.242;2024-02-16T09:56:01;18.50;99.90
13148;DHT22;6639;50.956;4.242;2024-02-16T09:58:31;18.60;99.90
13148;DHT22;6639;50.956;4.242;2024-02-16T10:00:58;18.70;99.90
13148;DHT22;6639;50.956;4.242;2024-02-16T10:03:25;18.50;99.90
13148;DHT22;6639;50.956;4.242;2024-02-16T10:06:04;18.80;99.90
13148;DHT22;6639;50.956;4.242;2024-02-16T10:08:32;18.70;99.90
13148;DHT22;6639;50.956;4.242;2024-02-16T10:11:02;18.70;99.90
13148;DHT22;6639;50.956;4.242;2024-02-16T10:13:30;18.50;99.90
13148;DHT22;6639;50.956;4.242;2024-02-16T10:16:06;18.60;99.90
13148;DHT22;6639;50.956;4.242;2024-02-16T10:18:35;18.80;99.90
13148;DHT22;6639;50.956;4.242;2024-02-16T10:21:03;19.00;99.90
13148;DHT22;6639;50.956;4.242;2024-02-16T10:23:31;19.00;99.90
13148;DHT22;6639;50.956;4.242;2024-02-16T10:25:58;19.00;99.90
13148;DHT22;6639;50.956;4.242;2024-02-16T10:28:28;19.20;99.90
13148;DHT22;6639;50.956;4.242;2024-02-16T10:30:57;19.00;99.90
13148;DHT22;6639;50.956;4.242;2024-02-16T10:33:25;18.80;99.90
13148;DHT22;6639;50.956;4.242;2024-02-16T10:35:55;18.80;99.90
13148;DHT22;6639;50.956;4.242;2024-02-16T10:38:24;18.70;99.90
13148;DHT22;6639;50.956;4.242;2024-02-16T10:40:53;18.50;99.90
13148;DHT22;6639;50.956;4.242;2024-02-16T10:43:21;18.60;99.90
13148;DHT22;6639;50.956;4.242;2024-02-16T10:45:47;18.70;99.90
13148;DHT22;6639;50.956;4.242;2024-02-16T10:48:18;18.70;99.90
13148;DHT22;6639;50.956;4.242;2024-02-16T10:50:46;18.80;99.90
13148;DHT22;6639;50.956;4.242;2024-02-16T10:53:21;18.70;99.90
13148;DHT22;6639;50.956;4.242;2024-02-16T10:55:51;18.50;99.90
13148;DHT22;6639;50.956;4.242;2024-02-16T10:58:18;18.60;99.90
13148;DHT22;6639;50.956;4.242;2024-02-16T11:00:52;18.60;99.90
13148;DHT22;6639;50.956;4.242;2024-02-16T11:03:22;18.40;99.90
13148;DHT22;6639;50.956;4.242;2024-02-16T11:05:51;18.30;99.90
13148;DHT22;6639;50.956;4.242;2024-02-16T11:08:19;18.20;99.90
13148;DHT22;6639;50.956;4.242;2024-02-16T11:10:57;18.10;99.90
13148;DHT22;6639;50.956;4.242;2024-02-16T11:13:25;17.90;99.90
13148;DHT22;6639;50.956;4.242;2024-02-16T11:15:59;17.90;99.90
13148;DHT22;6639;50.956;4.242;2024-02-16T11:18:27;18.20;99.90
13148;DHT22;6639;50.956;4.242;2024-02-16T11:20:54;18.40;99.90
13148;DHT22;6639;50.956;4.242;2024-02-16T11:23:26;18.30;99.90
13148;DHT22;6639;50.956;4.242;2024-02-16T11:25:53;18.20;99.90
13148;DHT22;6639;50.956;4.242;2024-02-16T11:28:22;18.30;99.90
13148;DHT22;6639;50.956;4.242;2024-02-16T11:30:50;18.00;99.90
13148;DHT22;6639;50.956;4.242;2024-02-16T11:33:17;17.90;99.90
13148;DHT22;6639;50.956;4.242;2024-02-16T11:35:52;18.30;99.90
13148;DHT22;6639;50.956;4.242;2024-02-16T11:38:19;18.50;99.90
13148;DHT22;6639;50.956;4.242;2024-02-16T11:40:53;18.70;99.90
13148;DHT22;6639;50.956;4.242;2024-02-16T11:43:22;18.90;99.90
13148;DHT22;6639;50.956;4.242;2024-02-16T11:45:49;18.60;99.90
13148;DHT22;6639;50.956;4.242;2024-02-16T11:48:19;18.50;99.90
13148;DHT22;6639;50.956;4.242;2024-02-16T11:50:48;18.60;99.90
13148;DHT22;6639;50.956;4.242;2024-02-16T11:53:16;18.50;99.90
13148;DHT22;6639;50.956;4.242;2024-02-16T11:55:46;18.50;99.90
13148;DHT22;6639;50.956;4.242;2024-02-16T11:58:16;18.50;99.90
13148;DHT22;6639;50.956;4.242;2024-02-16T12:00:44;18.60;99.90
13148;DHT22;6639;50.956;4.242;2024-02-16T12:03:11;18.60;99.90
13148;DHT22;6639;50.956;4.242;2024-02-16T12:05:38;18.90;99.90
13148;DHT22;6639;50.956;4.242;2024-02-16T12:08:06;19.00;99.90
13148;DHT22;6639;50.956;4.242;2024-02-16T12:10:33;19.20;99.90
13148;DHT22;6639;50.956;4.242;2024-02-16T12:13:02;19.40;99.90
13148;DHT22;6639;50.956;4.242;2024-02-16T12:15:31;19.30;99.90
13148;DHT22;6639;50.956;4.242;2024-02-16T12:18:00;19.50;99.90
13148;DHT22;6639;50.956;4.242;2024-02-16T12:20:29;19.50;99.90
13148;DHT22;6639;50.956;4.242;2024-02-16T12:22:57;19.00;99.90
13148;DHT22;6639;50.956;4.242;2024-02-16T12:25:24;19.30;99.90
13148;DHT22;6639;50.956;4.242;2024-02-16T12:27:51;19.50;99.90
13148;DHT22;6639;50.956;4.242;2024-02-16T12:30:19;19.60;99.90
13148;DHT22;6639;50.956;4.242;2024-02-16T12:32:45;19.40;99.90
13148;DHT22;6639;50.956;4.242;2024-02-16T12:35:14;19.60;99.90
13148;DHT22;6639;50.956;4.242;2024-02-16T12:37:41;19.90;99.90
13148;DHT22;6639;50.956;4.242;2024-02-16T12:40:08;19.70;99.90
13148;DHT22;6639;50.956;4.242;2024-02-16T12:42:35;19.70;99.90
13148;DHT22;6639;50.956;4.242;2024-02-16T12:45:04;19.70;99.90
13148;DHT22;6639;50.956;4.242;2024-02-16T12:47:31;19.80;99.90
13148;DHT22;6639;50.956;4.242;2024-02-16T12:49:57;20.10;99.90
13148;DHT22;6639;50.956;4.242;2024-02-16T12:52:26;20.40;99.90
13148;DHT22;6639;50.956;4.242;2024-02-16T12:54:53;20.40;99.90
13148;DHT22;6639;50.956;4.242;2024-02-16T12:57:20;20.30;99.90
13148;DHT22;6639;50.956;4.242;2024-02-16T12:59:47;20.40;99.90
13148;DHT22;6639;50.956;4.242;2024-02-16T13:02:14;20.20;99.90
13148;DHT22;6639;50.956;4.242;2024-02-16T13:04:41;20.20;99.90
13148;DHT22;6639;50.956;4.242;2024-02-16T13:07:08;20.30;99.90
13148;DHT22;6639;50.956;4.242;2024-02-16T13:09:38;20.30;99.90
13148;DHT22;6639;50.956;4.242;2024-02-16T13:12:05;19.90;99.90
13148;DHT22;6639;50.956;4.242;2024-02-16T13:14:32;19.60;99.90
13148;DHT22;6639;50.956;4.242;2024-02-16T13:16:59;19.80;99.90
13148;DHT22;6639;50.956;4.242;2024-02-16T13:19:26;19.70;99.90
13148;DHT22;6639;50.956;4.242;2024-02-16T13:21:53;19.80;99.90
13148;DHT22;6639;50.956;4.242;2024-02-16T13:24:20;19.50;99.90
13148;DHT22;6639;50.956;4.242;2024-02-16T13:26:48;19.50;99.90
13148;DHT22;6639;50.956;4.242;2024-02-16T13:29:15;19.50;99.90
13148;DHT22;6639;50.956;4.242;2024-02-16T13:31:42;19.50;99.90
13148;DHT22;6639;50.956;4.242;2024-02-16T13:34:09;20.00;99.90
13148;DHT22;6639;50.956;4.242;2024-02-16T13:36:36;19.90;99.90
13148;DHT22;6639;50.956;4.242;2024-02-16T13:39:02;20.10;99.90
13148;DHT22;6639;50.956;4.242;2024-02-16T13:41:31;20.30;99.90
13148;DHT22;6639;50.956;4.242;2024-02-16T13:43:59;20.50;99.90
13148;DHT22;6639;50.956;4.242;2024-02-16T13:46:27;20.60;99.90
13148;DHT22;6639;50.956;4.242;2024-02-16T13:48:53;20.50;99.90
13148;DHT22;6639;50.956;4.242;2024-02-16T13:51:22;20.40;99.90
13148;DHT22;6639;50.956;4.242;2024-02-16T13:53:49;20.40;99.90
13148;DHT22;6639;50.956;4.242;2024-02-16T13:56:17;20.70;99.90
13148;DHT22;6639;50.956;4.242;2024-02-16T13:58:44;20.50;99.90
13148;DHT22;6639;50.956;4.242;2024-02-16T14:01:14;20.30;99.90
13148;DHT22;6639;50.956;4.242;2024-02-16T14:03:41;20.50;99.90
13148;DHT22;6639;50.956;4.242;2024-02-16T14:06:09;20.40;99.90
13148;DHT22;6639;50.956;4.242;2024-02-16T14:08:37;20.30;99.90
13148;DHT22;6639;50.956;4.242;2024-02-16T14:11:04;20.50;99.90
13148;DHT22;6639;50.956;4.242;2024-02-16T14:13:31;20.30;99.90
13148;DHT22;6639;50.956;4.242;2024-02-16T14:15:58;20.40;99.90
13148;DHT22;6639;50.956;4.242;2024-02-16T14:18:26;20.40;99.90
13148;DHT22;6639;50.956;4.242;2024-02-16T14:20:53;20.30;99.90
13148;DHT22;6639;50.956;4.242;2024-02-16T14:23:20;20.50;99.90
13148;DHT22;6639;50.956;4.242;2024-02-16T14:25:47;20.80;99.90
13148;DHT22;6639;50.956;4.242;2024-02-16T14:28:13;20.90;99.90
13148;DHT22;6639;50.956;4.242;2024-02-16T14:30:40;20.90;99.90
13148;DHT22;6639;50.956;4.242;2024-02-16T14:33:07;20.70;99.90
13148;DHT22;6639;50.956;4.242;2024-02-16T14:35:37;20.90;99.90
13148;DHT22;6639;50.956;4.242;2024-02-16T14:38:04;20.70;99.90
13148;DHT22;6639;50.956;4.242;2024-02-16T14:40:31;20.50;99.90
13148;DHT22;6639;50.956;4.242;2024-02-16T14:42:58;20.60;99.90
13148;DHT22;6639;50.956;4.242;2024-02-16T14:45:25;20.60;99.90
13148;DHT22;6639;50.956;4.242;2024-02-16T14:47:52;20.70;99.90
13148;DHT22;6639;50.956;4.242;2024-02-16T14:50:19;20.90;99.90
13148;DHT22;6639;50.956;4.242;2024-02-16T14:52:49;20.90;99.90
13148;DHT22;6639;50.956;4.242;2024-02-16T14:55:16;20.70;99.90
13148;DHT22;6639;50.956;4.242;2024-02-16T14:57:43;21.00;99.90
13148;DHT22;6639;50.956;4.242;2024-02-16T15:00:11;21.20;99.90
13148;DHT22;6639;50.956;4.242;2024-02-16T15:02:39;21.40;99.90
13148;DHT22;6639;50.956;4.242;2024-02-16T15:05:07;21.60;99.90
13148;DHT22;6639;50.956;4.242;2024-02-16T15:07:35;21.50;99.90
13148;DHT22;6639;50.956;4.242;2024-02-16T15:10:05;21.40;99.90
13148;DHT22;6639;50.956;4.242;2024-02-16T15:12:32;21.00;99.90
13148;DHT22;6639;50.956;4.242;2024-02-16T15:14:59;20.90;99.90
13148;DHT22;6639;50.956;4.242;2024-02-16T15:17:26;21.10;99.90
13148;DHT22;6639;50.956;4.242;2024-02-16T15:19:55;21.20;99.90
13148;DHT22;6639;50.956;4.242;2024-02-16T15:22:22;21.00;99.90
13148;DHT22;6639;50.956;4.242;2024-02-16T15:24:50;21.10;99.90
13148;DHT22;6639;50.956;4.242;2024-02-16T15:27:18;21.00;99.90
13148;DHT22;6639;50.956;4.242;2024-02-16T15:29:45;21.10;99.90
13148;DHT22;6639;50.956;4.242;2024-02-16T15:32:12;21.20;99.90
13148;DHT22;6639;50.956;4.242;2024-02-16T15:34:39;21.20;99.90
13148;DHT22;6639;50.956;4.242;2024-02-16T15:37:09;21.20;99.90
13148;DHT22;6639;50.956;4.242;2024-02-16T15:39:35;20.90;99.90
13148;DHT22;6639;50.956;4.242;2024-02-16T15:42:03;21.10;99.90
13148;DHT22;6639;50.956;4.242;2024-02-16T15:44:31;21.40;99.90
13148;DHT22;6639;50.956;4.242;2024-02-16T15:46:58;21.30;99.90